createdAt,value
2014-08-13T00:03:08.482Z,100668
2014-08-13T00:12:09.126Z,100645
2014-08-13T00:20:09.718Z,100645
2014-08-13T06:26:50.613Z,100518
2014-08-13T06:35:51.333Z,100507
2014-08-13T06:42:51.890Z,100498
2014-08-13T06:50:52.485Z,100501
2014-08-13T06:58:53.081Z,100472
2014-08-13T07:06:53.674Z,100460
2014-08-13T07:15:54.316Z,100454
2014-08-13T07:24:54.959Z,100454
2014-08-13T07:33:55.600Z,100443
2014-08-13T07:40:56.129Z,100457
2014-08-13T18:04:40.803Z,100253
2014-08-13T18:12:41.395Z,100262
2014-08-13T18:19:41.941Z,100256
2014-08-13T18:26:42.485Z,100265
2014-08-13T18:35:43.128Z,100250
2014-08-13T18:44:43.802Z,100250
2014-08-13T18:52:44.379Z,100262
2014-08-13T18:59:44.908Z,100259
2014-08-13T19:06:45.453Z,100274
2014-08-13T19:15:46.110Z,100311
2014-08-13T19:24:46.753Z,100317
2014-08-13T19:32:47.346Z,100320
2014-08-13T19:39:47.891Z,100335
2014-08-13T19:46:48.450Z,100342
2014-08-13T19:53:48.980Z,100366
2014-08-13T20:02:49.624Z,100339
2014-08-13T20:10:50.216Z,100360
2014-08-13T20:19:50.860Z,100360
2014-08-13T20:25:51.353Z,100372
2014-08-13T20:34:52.013Z,100378
2014-08-13T20:41:52.543Z,100375
2014-08-13T20:51:53.248Z,100369
2014-08-13T20:58:53.793Z,100381
2014-08-13T21:07:54.435Z,100375
2014-08-13T21:14:54.981Z,100381
2014-08-13T21:23:55.622Z,100381
2014-08-13T21:33:56.329Z,100375
2014-08-13T21:41:56.922Z,100393
2014-08-13T21:48:57.469Z,100393
2014-08-13T21:54:57.947Z,100387
2014-08-13T22:03:58.605Z,100404
2014-08-13T22:11:59.199Z,100407
2014-08-13T22:18:59.742Z,100431
2014-08-13T22:27:00.337Z,100422
2014-08-13T22:34:00.882Z,100413
2014-08-13T22:41:01.425Z,100413
2014-08-13T22:48:01.971Z,100428
2014-08-13T22:55:02.531Z,100425
2014-08-13T23:03:03.111Z,100434
2014-08-13T23:12:03.752Z,100443
2014-08-13T23:20:04.346Z,100440
2014-08-13T23:28:04.938Z,100449
2014-08-13T23:35:05.499Z,100446
2014-08-13T23:43:06.077Z,100460
2014-08-13T23:49:06.574Z,100458
2014-08-13T23:56:07.134Z,100449
